Time;durP1;ratioP1;P1;durP2;ratioP2;P2;SDS_P1;SDS_P2;PMS_P1;PMS_P2;Temp;Humidity;BMP_temperature;BMP_pressure;BME280_temperature;BME280_humidity;BME280_pressure;Samples;Min_cycle;Max_cycle;Signal;HPM_P1;HPM_P2
2023/01/14 00:01:45;;;;;;;10.50;3.13;;;7.20;1.00;;;;;;5051391;28;20453;-73
2023/01/14 00:04:11;;;;;;;7.97;3.17;;;7.30;1.00;;;;;;5053697;28;20518;-73
2023/01/14 00:06:37;;;;;;;10.40;3.10;;;7.30;1.00;;;;;;5055121;28;20196;-72
2023/01/14 00:09:06;;;;;;;12.67;3.83;;;7.40;1.00;;;;;;5056727;28;20184;-73
2023/01/14 00:11:48;;;;;;;11.50;3.97;;;7.40;9.20;;;;;;5056748;28;20443;-73
2023/01/14 00:14:17;;;;;;;9.90;3.33;;;7.40;10.10;;;;;;5054843;28;20436;-72
2023/01/14 00:16:44;;;;;;;6.83;3.23;;;7.40;12.70;;;;;;5056528;28;20450;-73
2023/01/14 00:19:11;;;;;;;17.83;4.07;;;7.50;9.00;;;;;;5056456;28;20492;-73
2023/01/14 00:21:37;;;;;;;15.37;5.00;;;7.40;10.60;;;;;;5056352;28;20449;-72
2023/01/14 00:24:03;;;;;;;18.47;2.83;;;7.50;13.40;;;;;;5056333;28;20390;-72
2023/01/14 00:26:29;;;;;;;13.00;3.50;;;7.40;11.20;;;;;;5055745;28;20412;-72
2023/01/14 00:28:55;;;;;;;14.00;3.60;;;7.40;11.30;;;;;;5056370;28;20397;-73
2023/01/14 00:31:23;;;;;;;7.77;3.33;;;7.40;12.50;;;;;;5056213;28;20217;-72
2023/01/14 00:33:49;;;;;;;14.63;3.20;;;7.50;16.20;;;;;;5056196;28;20175;-73
2023/01/14 00:36:17;;;;;;;10.37;3.10;;;7.40;14.30;;;;;;5055643;28;20428;-73
2023/01/14 00:38:44;;;;;;;24.97;3.87;;;7.50;11.70;;;;;;5056147;28;20492;-74
2023/01/14 00:41:17;;;;;;;7.23;3.10;;;7.50;9.70;;;;;;5056058;28;20521;-72
2023/01/14 00:43:56;;;;;;;5.97;2.70;;;7.50;5.80;;;;;;5055179;28;20898;-72
2023/01/14 00:46:28;;;;;;;14.37;2.77;;;7.50;9.30;;;;;;5055244;28;20397;-72
2023/01/14 00:48:54;;;;;;;18.23;3.23;;;7.50;1.40;;;;;;5056505;28;20394;-73
2023/01/14 00:51:21;;;;;;;12.20;3.00;;;7.50;1.00;;;;;;5055684;28;20401;-74
2023/01/14 00:53:47;;;;;;;11.57;3.00;;;7.50;1.00;;;;;;5055977;28;20404;-72
2023/01/14 00:56:18;;;;;;;14.93;3.23;;;7.50;1.00;;;;;;5055183;28;20500;-73
2023/01/14 00:58:43;;;;;;;12.03;3.20;;;7.50;1.00;;;;;;5055805;28;20414;-73
2023/01/14 01:01:09;;;;;;;8.20;2.17;;;7.50;1.00;;;;;;5054398;28;20819;-73
2023/01/14 01:03:40;;;;;;;4.57;2.60;;;7.50;1.00;;;;;;5055734;28;20171;-72
2023/01/14 01:06:06;;;;;;;11.57;2.70;;;7.50;1.00;;;;;;5055047;28;20440;-71
2023/01/14 01:08:32;;;;;;;6.60;2.73;;;7.40;1.00;;;;;;5055554;28;20480;-73
2023/01/14 01:10:59;;;;;;;11.97;3.50;;;7.40;1.00;;;;;;5055300;28;20535;-73
2023/01/14 01:13:25;;;;;;;9.90;2.17;;;7.50;1.00;;;;;;5054648;28;20416;-73
2023/01/14 01:15:52;;;;;;;7.40;2.43;;;7.50;1.00;;;;;;5053985;28;20460;-74
2023/01/14 01:18:19;;;;;;;10.80;2.50;;;7.50;1.00;;;;;;5055416;28;20393;-73
2023/01/14 01:20:45;;;;;;;14.50;2.37;;;7.50;1.00;;;;;;5055472;28;20462;-74
2023/01/14 01:23:14;;;;;;;12.83;2.83;;;7.50;1.00;;;;;;5055263;28;20440;-73
2023/01/14 01:25:40;;;;;;;10.23;3.00;;;7.50;1.00;;;;;;5053579;28;20459;-73
2023/01/14 01:28:07;;;;;;;7.20;2.53;;;7.40;1.00;;;;;;5055097;28;20405;-73
2023/01/14 01:30:32;;;;;;;7.80;2.70;;;7.40;1.00;;;;;;5055203;28;20960;-73
2023/01/14 01:32:58;;;;;;;15.23;3.10;;;7.40;1.00;;;;;;5055005;28;20409;-73
2023/01/14 01:35:24;;;;;;;3.83;2.13;;;7.30;1.00;;;;;;5054558;28;20183;-71
2023/01/14 01:37:51;;;;;;;7.70;2.53;;;7.30;1.00;;;;;;5055095;28;20717;-73
2023/01/14 01:40:17;;;;;;;4.33;2.30;;;7.20;1.00;;;;;;5053730;28;20409;-73
2023/01/14 01:42:55;;;;;;;6.60;2.23;;;7.20;1.00;;;;;;5053661;28;20457;-73
2023/01/14 01:45:39;;;;;;;8.80;2.87;;;7.20;1.00;;;;;;5053927;28;20467;-73
2023/01/14 01:48:23;;;;;;;8.07;3.10;;;7.20;1.00;;;;;;5054995;28;20504;-73
2023/01/14 01:50:57;;;;;;;5.97;2.50;;;7.20;1.00;;;;;;5054959;28;20409;-73
2023/01/14 01:53:24;;;;;;;11.10;3.20;;;7.20;1.00;;;;;;5053793;28;20898;-73
2023/01/14 01:55:53;;;;;;;8.23;3.53;;;7.20;1.00;;;;;;5052968;28;20421;-72
2023/01/14 01:58:20;;;;;;;13.20;2.90;;;7.20;1.00;;;;;;5054704;28;20425;-73
2023/01/14 02:00:46;;;;;;;9.67;3.93;;;7.20;1.00;;;;;;5054889;28;20400;-74
2023/01/14 02:03:19;;;;;;;9.73;2.50;;;7.20;1.00;;;;;;5053150;28;20528;-73
2023/01/14 02:05:47;;;;;;;9.80;2.83;;;7.20;1.00;;;;;;5053555;28;20270;-73
2023/01/14 02:08:13;;;;;;;16.67;3.60;;;7.20;1.00;;;;;;5054654;28;20461;-73
2023/01/14 02:10:48;;;;;;;11.63;3.40;;;7.20;1.00;;;;;;5054513;28;20436;-73
2023/01/14 02:13:42;;;;;;;12.13;2.47;;;7.30;4.50;;;;;;5054277;28;20260;-73
2023/01/14 02:16:54;;;;;;;10.20;2.40;;;7.30;2.60;;;;;;5052348;28;20439;-73
2023/01/14 02:19:31;;;;;;;17.43;3.60;;;7.30;6.00;;;;;;5053097;28;20882;-73
2023/01/14 02:22:32;;;;;;;8.10;3.57;;;7.30;6.90;;;;;;5054370;28;20436;-73
2023/01/14 02:25:13;;;;;;;8.70;3.17;;;7.20;1.00;;;;;;5052086;28;20508;-73
2023/01/14 02:27:52;;;;;;;16.10;2.70;;;7.20;4.10;;;;;;5052087;28;20413;-74
2023/01/14 02:30:39;;;;;;;7.83;2.73;;;7.20;9.90;;;;;;5052817;28;20408;-74
2023/01/14 02:33:26;;;;;;;12.57;2.03;;;7.20;9.40;;;;;;5053946;28;20397;-73
2023/01/14 02:36:27;;;;;;;16.13;2.87;;;7.30;6.40;;;;;;5052102;28;20848;-73
2023/01/14 02:39:23;;;;;;;19.30;3.10;;;7.30;9.30;;;;;;5053117;28;20542;-73
2023/01/14 02:45:36;;;;;;;7.80;2.63;;;7.30;7.70;;;;;;5053082;28;20467;-73
2023/01/14 02:48:04;;;;;;;6.07;2.07;;;7.30;7.30;;;;;;5053485;28;20409;-74
2023/01/14 02:50:31;;;;;;;7.50;2.67;;;7.30;7.00;;;;;;5053710;28;20508;-73
2023/01/14 02:52:57;;;;;;;9.73;3.20;;;7.30;7.30;;;;;;5053732;28;20451;-73
2023/01/14 02:55:33;;;;;;;14.83;2.70;;;7.30;11.90;;;;;;5052976;28;20425;-73
2023/01/14 02:58:19;;;;;;;5.80;2.70;;;7.30;10.20;;;;;;5053587;28;20246;-73
2023/01/14 03:01:11;;;;;;;8.70;3.90;;;7.30;6.10;;;;;;5053266;28;20467;-73
2023/01/14 03:03:55;;;;;;;15.17;3.50;;;7.20;7.50;;;;;;5053411;28;20736;-74
2023/01/14 03:06:47;;;;;;;7.67;2.87;;;7.30;9.60;;;;;;5052741;28;20404;-73
2023/01/14 03:09:43;;;;;;;10.27;2.53;;;7.20;1.80;;;;;;5053462;28;20878;-73
2023/01/14 03:12:21;;;;;;;10.10;2.50;;;7.20;1.00;;;;;;5053444;28;20467;-72
2023/01/14 03:15:08;;;;;;;3.90;2.60;;;7.30;1.00;;;;;;5052679;28;20893;-73
2023/01/14 03:17:38;;;;;;;9.70;3.07;;;7.20;1.00;;;;;;5053202;28;20420;-73
2023/01/14 03:20:29;;;;;;;10.77;2.73;;;7.20;1.00;;;;;;5053043;28;20728;-74
2023/01/14 03:22:57;;;;;;;11.43;2.70;;;7.20;1.00;;;;;;5051830;28;20962;-73
2023/01/14 03:25:25;;;;;;;12.53;2.43;;;7.30;1.00;;;;;;5051544;28;20468;-73
2023/01/14 03:27:53;;;;;;;11.33;2.53;;;7.30;1.00;;;;;;5051818;28;20493;-73
2023/01/14 03:30:26;;;;;;;5.33;2.33;;;7.30;1.00;;;;;;5053152;28;20409;-73
2023/01/14 03:33:01;;;;;;;7.70;2.10;;;7.30;1.00;;;;;;5052099;28;20413;-73
2023/01/14 03:35:38;;;;;;;2.90;2.03;;;7.30;1.00;;;;;;5052241;28;20523;-73
2023/01/14 03:38:18;;;;;;;13.67;2.60;;;7.30;1.00;;;;;;5052976;28;20818;-73
2023/01/14 03:40:46;;;;;;;11.30;2.30;;;7.40;1.00;;;;;;5052637;28;20411;-73
2023/01/14 03:43:29;;;;;;;5.80;2.57;;;7.40;1.00;;;;;;5052825;28;20492;-73
2023/01/14 03:45:58;;;;;;;8.57;2.53;;;7.30;1.00;;;;;;5052008;28;20460;-73
2023/01/14 03:48:25;;;;;;;7.43;2.07;;;7.40;1.00;;;;;;5051812;28;20400;-73
2023/01/14 03:51:15;;;;;;;7.00;2.23;;;7.30;1.00;;;;;;5052877;28;20398;-73
2023/01/14 03:53:59;;;;;;;9.20;2.40;;;7.40;1.00;;;;;;5052750;28;20736;-73
2023/01/14 03:56:32;;;;;;;4.60;1.70;;;7.30;1.00;;;;;;5051788;28;20390;-73
2023/01/14 03:59:36;;;;;;;11.00;2.90;;;7.30;1.00;;;;;;5052769;28;20974;-73
2023/01/14 04:02:03;;;;;;;8.93;2.73;;;7.30;1.00;;;;;;5033678;28;20448;-73
2023/01/14 04:04:31;;;;;;;5.77;1.90;;;7.30;1.00;;;;;;5051422;28;20437;-73
2023/01/14 04:06:57;;;;;;;5.77;3.03;;;7.30;1.00;;;;;;5052726;28;20417;-73
2023/01/14 04:09:23;;;;;;;11.00;3.23;;;7.30;1.00;;;;;;5052772;28;20493;-73
2023/01/14 04:11:49;;;;;;;15.23;2.97;;;7.30;1.00;;;;;;5052651;28;20483;-74
2023/01/14 04:16:59;;;;;;;7.53;2.50;;;7.20;1.00;;;;;;5052644;28;20252;-73
2023/01/14 04:19:24;;;;;;;11.07;2.40;;;7.30;1.00;;;;;;5052771;28;20452;-74
2023/01/14 04:21:50;;;;;;;21.97;3.90;;;7.30;1.00;;;;;;5051458;28;20206;-73
2023/01/14 04:24:16;;;;;;;9.17;2.60;;;7.20;1.00;;;;;;5050938;28;20189;-74
2023/01/14 04:26:41;;;;;;;12.63;2.70;;;7.20;1.00;;;;;;5052366;28;20241;-73
2023/01/14 04:29:07;;;;;;;10.23;2.60;;;7.10;1.00;;;;;;5052520;28;20167;-73
2023/01/14 04:31:33;;;;;;;18.63;3.93;;;7.00;1.00;;;;;;5052553;28;20246;-74
2023/01/14 04:33:58;;;;;;;10.70;3.40;;;7.00;1.00;;;;;;5052132;28;20204;-74
2023/01/14 04:36:24;;;;;;;17.67;3.33;;;7.00;3.50;;;;;;5051658;28;20187;-74
2023/01/14 04:38:49;;;;;;;8.10;3.07;;;6.90;16.10;;;;;;5052559;28;20175;-73
2023/01/14 04:43:59;;;;;;;8.80;2.93;;;6.80;28.80;;;;;;5052392;28;20320;-74
2023/01/14 04:46:27;;;;;;;6.90;2.67;;;6.80;49.70;;;;;;5050393;28;20791;-74
2023/01/14 04:48:52;;;;;;;3.87;2.63;;;6.90;58.70;;;;;;5052368;28;20191;-73
2023/01/14 04:51:18;;;;;;;6.73;2.87;;;6.90;78.80;;;;;;5053695;28;20806;-73
2023/01/14 04:53:44;;;;;;;8.40;3.10;;;6.90;79.70;;;;;;5054710;28;20175;-73
2023/01/14 04:56:09;;;;;;;8.63;2.80;;;6.90;82.40;;;;;;5055351;28;20252;-72
2023/01/14 04:58:35;;;;;;;6.50;2.20;;;6.90;94.00;;;;;;5055772;28;20181;-75
2023/01/14 05:01:01;;;;;;;6.90;2.90;;;6.90;97.30;;;;;;5055693;28;20182;-74
2023/01/14 05:03:27;;;;;;;11.20;4.57;;;6.90;99.50;;;;;;5055907;28;20493;-74
2023/01/14 05:05:52;;;;;;;12.93;2.77;;;6.90;99.90;;;;;;5054938;28;20179;-74
2023/01/14 05:08:19;;;;;;;17.17;3.87;;;6.90;99.90;;;;;;5055698;28;20171;-74
2023/01/14 05:10:49;;;;;;;18.03;4.07;;;6.90;99.90;;;;;;5055359;28;20168;-73
2023/01/14 05:13:15;;;;;;;5.20;3.07;;;6.90;99.90;;;;;;5055514;28;20409;-74
2023/01/14 05:15:42;;;;;;;14.63;4.10;;;6.90;99.90;;;;;;5054796;28;20771;-74
2023/01/14 05:18:10;;;;;;;5.67;2.63;;;6.90;99.90;;;;;;5054569;28;20502;-75
2023/01/14 05:20:36;;;;;;;7.93;3.07;;;6.90;99.90;;;;;;5055428;28;20408;-73
2023/01/14 05:23:05;;;;;;;7.50;3.07;;;6.90;99.90;;;;;;5055281;28;20456;-74
2023/01/14 05:25:32;;;;;;;6.77;2.90;;;6.90;99.90;;;;;;5054640;28;20425;-73
2023/01/14 05:27:59;;;;;;;8.70;3.03;;;6.90;99.90;;;;;;5055089;28;20398;-74
2023/01/14 05:30:25;;;;;;;7.57;2.60;;;6.90;99.90;;;;;;5055315;28;20451;-73
2023/01/14 05:32:51;;;;;;;10.63;3.80;;;6.80;99.90;;;;;;5055218;28;20414;-74
2023/01/14 05:35:17;;;;;;;5.20;3.13;;;6.90;99.90;;;;;;5054583;28;20475;-73
2023/01/14 05:37:43;;;;;;;4.90;2.30;;;6.90;99.90;;;;;;5055174;28;20178;-75
2023/01/14 05:40:10;;;;;;;4.13;3.30;;;6.90;99.90;;;;;;5055258;28;20874;-73
2023/01/14 05:45:38;;;;;;;6.33;2.70;;;6.90;99.90;;;;;;5053907;28;20428;-75
2023/01/14 05:48:05;;;;;;;6.73;2.50;;;6.80;99.90;;;;;;5055020;28;20501;-73
2023/01/14 05:50:31;;;;;;;7.43;3.40;;;6.80;99.90;;;;;;5054865;28;20390;-73
2023/01/14 05:52:57;;;;;;;5.50;2.70;;;6.80;99.90;;;;;;5054656;28;20467;-74
2023/01/14 05:55:22;;;;;;;10.10;2.40;;;6.90;99.90;;;;;;5054095;28;20922;-74
2023/01/14 05:57:48;;;;;;;4.17;2.30;;;6.90;99.90;;;;;;5054825;28;20675;-73
2023/01/14 06:08:28;;;;;;;3.67;2.20;;;6.80;99.90;;;;;;5054555;28;20944;-74
2023/01/14 06:10:54;;;;;;;5.13;2.77;;;6.80;99.90;;;;;;5054524;28;20811;-73
2023/01/14 06:13:22;;;;;;;6.67;3.03;;;6.80;99.90;;;;;;5054502;28;20441;-74
2023/01/14 06:15:51;;;;;;;8.23;4.43;;;6.80;99.90;;;;;;5053578;28;20473;-75
2023/01/14 06:18:22;;;;;;;9.83;3.43;;;6.80;99.90;;;;;;5054094;28;20412;-74
2023/01/14 06:20:54;;;;;;;7.57;2.50;;;6.80;99.90;;;;;;5053136;28;20410;-73
2023/01/14 06:23:21;;;;;;;10.67;3.13;;;6.80;99.90;;;;;;5054169;28;20456;-75
2023/01/14 06:25:49;;;;;;;6.70;3.30;;;6.80;99.90;;;;;;5053518;28;20418;-73
2023/01/14 06:28:16;;;;;;;6.27;3.10;;;6.70;99.90;;;;;;5053145;28;20413;-73
2023/01/14 06:30:42;;;;;;;7.60;3.30;;;6.80;99.90;;;;;;5054269;28;20390;-74
2023/01/14 06:33:09;;;;;;;6.73;2.90;;;6.80;99.90;;;;;;5053715;28;20751;-74
2023/01/14 06:35:40;;;;;;;6.63;3.10;;;6.80;99.90;;;;;;5053044;28;20594;-73
2023/01/14 06:38:05;;;;;;;6.03;3.50;;;6.80;99.90;;;;;;5052968;28;20413;-73
2023/01/14 06:40:31;;;;;;;7.77;3.33;;;6.70;99.90;;;;;;5053852;28;20409;-73
2023/01/14 06:42:57;;;;;;;10.40;4.07;;;6.80;99.90;;;;;;5054205;28;20197;-73
2023/01/14 06:45:24;;;;;;;7.53;3.10;;;6.70;99.90;;;;;;5053010;28;20198;-74
2023/01/14 06:47:50;;;;;;;10.60;2.90;;;6.80;99.90;;;;;;5053705;28;20167;-73
2023/01/14 06:50:19;;;;;;;6.77;4.40;;;6.70;99.90;;;;;;5053711;28;20404;-73
2023/01/14 06:52:45;;;;;;;6.63;3.70;;;6.70;99.90;;;;;;5052530;28;20471;-73
2023/01/14 06:55:11;;;;;;;5.00;2.73;;;6.80;99.90;;;;;;5052705;28;20432;-73
2023/01/14 06:57:37;;;;;;;12.00;3.30;;;6.80;99.90;;;;;;5053441;28;20413;-74
2023/01/14 07:00:04;;;;;;;8.23;3.20;;;6.80;99.90;;;;;;5052378;28;20973;-74
2023/01/14 07:02:29;;;;;;;10.20;3.83;;;6.80;99.90;;;;;;5053531;28;20264;-72
2023/01/14 07:04:55;;;;;;;12.50;3.93;;;6.80;99.90;;;;;;5052758;28;20744;-73
2023/01/14 07:07:21;;;;;;;17.13;3.53;;;6.80;99.90;;;;;;5053537;28;20238;-73
2023/01/14 07:09:47;;;;;;;13.03;4.80;;;6.80;99.90;;;;;;5053249;28;20224;-75
2023/01/14 07:12:12;;;;;;;9.13;4.30;;;6.80;99.90;;;;;;5053192;28;20574;-72
2023/01/14 07:14:38;;;;;;;8.60;4.13;;;6.80;99.90;;;;;;5051885;28;20579;-74
2023/01/14 07:17:04;;;;;;;5.40;2.90;;;6.90;99.90;;;;;;5053069;28;20220;-75
2023/01/14 07:19:29;;;;;;;10.27;4.10;;;6.90;99.90;;;;;;5053388;28;20179;-75
2023/01/14 07:21:55;;;;;;;11.17;3.50;;;6.80;99.90;;;;;;5053168;28;20198;-75
2023/01/14 07:24:21;;;;;;;14.73;4.67;;;6.80;99.90;;;;;;5052350;28;20187;-74
2023/01/14 07:26:46;;;;;;;7.17;3.93;;;6.80;99.90;;;;;;5052220;28;20171;-74
2023/01/14 07:29:12;;;;;;;13.23;3.90;;;6.80;99.90;;;;;;5052908;28;20171;-74
2023/01/14 07:31:38;;;;;;;8.43;4.27;;;6.80;99.90;;;;;;5052920;28;20635;-73
2023/01/14 07:34:04;;;;;;;7.70;3.33;;;6.90;99.90;;;;;;5051683;28;20182;-74
2023/01/14 07:36:29;;;;;;;12.03;3.13;;;6.90;99.90;;;;;;5052392;28;20274;-74
2023/01/14 07:38:55;;;;;;;9.20;4.20;;;6.90;97.20;;;;;;5051985;28;20179;-74
2023/01/14 07:41:22;;;;;;;9.77;4.20;;;6.90;94.10;;;;;;5052962;28;20192;-75
2023/01/14 07:43:48;;;;;;;9.13;3.60;;;6.90;88.70;;;;;;5052880;28;20166;-73
2023/01/14 07:46:15;;;;;;;7.33;3.77;;;6.90;78.80;;;;;;5052268;28;20401;-74
2023/01/14 07:48:42;;;;;;;7.37;3.50;;;6.90;78.80;;;;;;5052661;28;20823;-74
2023/01/14 07:51:09;;;;;;;15.03;4.33;;;6.90;78.80;;;;;;5052790;28;20429;-73
2023/01/14 07:53:35;;;;;;;6.33;3.57;;;7.00;78.90;;;;;;5052859;28;20406;-75
2023/01/14 07:56:02;;;;;;;8.03;3.57;;;6.90;72.00;;;;;;5052023;28;20413;-74
2023/01/14 07:58:27;;;;;;;8.97;3.30;;;7.00;68.10;;;;;;5052855;28;20401;-75
2023/01/14 08:00:53;;;;;;;9.97;3.50;;;6.90;64.70;;;;;;5052819;28;20405;-74
2023/01/14 08:03:20;;;;;;;10.90;3.50;;;7.00;65.10;;;;;;5052793;28;20203;-73
2023/01/14 08:05:46;;;;;;;19.60;3.40;;;7.00;67.30;;;;;;5051748;28;20186;-74
2023/01/14 08:08:12;;;;;;;10.53;3.17;;;7.00;65.20;;;;;;5052673;28;20402;-74
2023/01/14 08:10:38;;;;;;;6.90;3.30;;;7.00;65.00;;;;;;5052746;28;20743;-73
2023/01/14 08:13:03;;;;;;;16.87;3.90;;;7.00;60.60;;;;;;5052667;28;20882;-75
2023/01/14 08:15:29;;;;;;;12.27;3.40;;;7.00;68.40;;;;;;5052154;28;20428;-75
2023/01/14 08:17:55;;;;;;;12.37;4.13;;;7.00;63.80;;;;;;5052547;28;20182;-73
2023/01/14 08:20:25;;;;;;;10.13;2.93;;;6.90;56.80;;;;;;5052533;28;20620;-74
2023/01/14 08:22:55;;;;;;;10.77;3.10;;;6.90;53.50;;;;;;5052286;28;20542;-73
2023/01/14 08:25:22;;;;;;;7.43;3.37;;;6.90;43.00;;;;;;5050949;28;20425;-74
2023/01/14 08:27:48;;;;;;;12.40;3.50;;;6.80;30.00;;;;;;5056328;28;20405;-73
2023/01/14 08:30:14;;;;;;;7.20;3.20;;;6.80;24.00;;;;;;5055296;28;20417;-74
2023/01/14 08:32:39;;;;;;;10.90;4.30;;;6.80;14.50;;;;;;5055457;28;20670;-73
2023/01/14 08:35:06;;;;;;;9.13;3.93;;;6.80;18.40;;;;;;5054269;28;20229;-74
2023/01/14 08:37:31;;;;;;;8.60;3.47;;;6.80;12.70;;;;;;5054806;28;20635;-74
2023/01/14 08:39:57;;;;;;;11.63;3.30;;;6.80;10.70;;;;;;5055812;28;21136;-73
2023/01/14 08:42:23;;;;;;;6.00;2.90;;;6.80;7.80;;;;;;5056002;28;20607;-75
2023/01/14 08:44:48;;;;;;;11.57;3.57;;;6.80;11.50;;;;;;5054553;28;20190;-74
2023/01/14 08:47:14;;;;;;;9.23;4.10;;;6.80;10.50;;;;;;5056126;28;20178;-73
2023/01/14 08:49:40;;;;;;;4.83;3.10;;;6.80;2.70;;;;;;5056065;28;20237;-75
2023/01/14 08:52:05;;;;;;;10.40;2.97;;;6.80;1.00;;;;;;5055070;28;20174;-74
2023/01/14 08:54:31;;;;;;;13.20;3.50;;;6.80;1.00;;;;;;5055123;28;20659;-74
2023/01/14 08:56:57;;;;;;;8.80;2.70;;;6.80;1.00;;;;;;5055714;28;20650;-74
2023/01/14 08:59:23;;;;;;;16.37;4.10;;;6.70;1.00;;;;;;5054712;28;20174;-73
2023/01/14 09:01:49;;;;;;;9.33;4.13;;;6.70;1.00;;;;;;5055781;28;20548;-74
2023/01/14 09:04:15;;;;;;;9.13;3.20;;;6.70;1.00;;;;;;5054234;28;20520;-74
2023/01/14 09:17:39;;;;;;;10.17;3.93;;;6.80;1.00;;;;;;5055749;28;20400;-74
2023/01/14 09:20:09;;;;;;;7.50;4.17;;;6.80;1.00;;;;;;5055507;28;20410;-74
2023/01/14 09:22:35;;;;;;;6.73;3.23;;;6.80;1.00;;;;;;5055273;28;20457;-74
2023/01/14 09:25:01;;;;;;;9.97;3.73;;;6.80;1.00;;;;;;5054667;28;20856;-74
2023/01/14 09:27:29;;;;;;;17.57;4.50;;;6.80;1.00;;;;;;5054229;28;20175;-73
2023/01/14 09:29:54;;;;;;;14.83;3.93;;;6.80;1.00;;;;;;5055297;28;20167;-73
2023/01/14 09:32:20;;;;;;;9.33;3.00;;;6.80;1.00;;;;;;5055112;28;20466;-73
2023/01/14 09:34:49;;;;;;;6.20;3.17;;;6.80;1.00;;;;;;5054376;28;20679;-73
2023/01/14 09:37:16;;;;;;;7.80;3.50;;;6.80;1.00;;;;;;5054558;28;20269;-74
2023/01/14 09:39:42;;;;;;;9.43;3.27;;;6.80;1.00;;;;;;5055111;28;20406;-73
2023/01/14 09:42:12;;;;;;;10.43;3.47;;;6.80;1.00;;;;;;5055064;28;20453;-73
2023/01/14 09:44:43;;;;;;;15.97;4.43;;;6.80;1.00;;;;;;5054285;28;20572;-74
2023/01/14 09:47:17;;;;;;;6.30;3.17;;;6.80;1.00;;;;;;5054942;28;20405;-74
2023/01/14 09:49:44;;;;;;;16.30;3.80;;;6.80;1.00;;;;;;5054715;28;20404;-73
2023/01/14 09:52:12;;;;;;;4.40;3.70;;;6.90;1.00;;;;;;5054859;28;20766;-74
2023/01/14 09:54:50;;;;;;;10.43;4.13;;;6.90;1.00;;;;;;5054100;28;20433;-73
2023/01/14 09:57:28;;;;;;;18.60;4.77;;;6.90;1.00;;;;;;5053452;28;20425;-73
2023/01/14 10:00:17;;;;;;;13.37;5.30;;;6.90;1.00;;;;;;5054713;28;20421;-74
2023/01/14 10:02:59;;;;;;;11.83;5.33;;;6.90;1.00;;;;;;5054753;28;20539;-74
2023/01/14 10:05:33;;;;;;;16.73;5.57;;;6.80;1.00;;;;;;5053069;28;20468;-75
2023/01/14 10:08:05;;;;;;;11.90;5.73;;;6.80;1.00;;;;;;5054527;28;20823;-73
2023/01/14 10:10:35;;;;;;;9.80;5.20;;;6.80;1.00;;;;;;5054310;28;20443;-73
2023/01/14 10:13:10;;;;;;;12.83;4.67;;;6.80;1.00;;;;;;5054391;28;20853;-74
2023/01/14 10:16:05;;;;;;;16.60;4.90;;;6.80;1.00;;;;;;5053683;28;20446;-74
2023/01/14 10:18:45;;;;;;;12.23;5.03;;;6.90;1.00;;;;;;5054247;28;20490;-74
2023/01/14 10:21:34;;;;;;;9.47;4.90;;;6.90;1.00;;;;;;5054095;28;20440;-74
2023/01/14 10:24:00;;;;;;;23.13;5.87;;;6.90;1.00;;;;;;5052992;28;20952;-73
2023/01/14 10:26:31;;;;;;;12.90;5.70;;;6.80;1.00;;;;;;5053613;28;20406;-73
2023/01/14 10:29:02;;;;;;;8.60;5.00;;;6.80;1.00;;;;;;5052798;28;20591;-74
2023/01/14 10:31:30;;;;;;;14.77;5.00;;;6.80;1.00;;;;;;5054162;28;20466;-71
2023/01/14 10:33:57;;;;;;;12.23;4.90;;;6.80;1.00;;;;;;5052673;28;20466;-74
2023/01/14 10:36:29;;;;;;;17.87;6.13;;;6.80;1.00;;;;;;5053257;28;20437;-72
2023/01/14 10:38:55;;;;;;;11.27;5.23;;;6.80;1.00;;;;;;5052705;28;20458;-73
2023/01/14 10:41:48;;;;;;;11.60;4.93;;;6.80;1.00;;;;;;5052748;28;20425;-73
2023/01/14 10:44:23;;;;;;;8.57;5.00;;;6.80;1.00;;;;;;5053479;28;20413;-73
2023/01/14 10:47:30;;;;;;;15.07;6.70;;;6.80;1.00;;;;;;5053704;28;20441;-74
2023/01/14 10:50:17;;;;;;;14.10;5.70;;;6.70;1.00;;;;;;5050798;28;20975;-74
2023/01/14 10:52:43;;;;;;;6.63;4.03;;;6.70;1.00;;;;;;5051718;28;20878;-72
2023/01/14 10:55:11;;;;;;;10.60;6.40;;;6.70;1.00;;;;;;5051968;28;20520;-73
2023/01/14 10:57:48;;;;;;;16.07;6.80;;;6.80;1.00;;;;;;5053584;28;20803;-73
2023/01/14 11:00:37;;;;;;;13.33;6.20;;;6.80;1.00;;;;;;5053655;28;20853;-72
2023/01/14 11:03:09;;;;;;;7.87;5.53;;;6.80;1.00;;;;;;5053095;28;20968;-73
2023/01/14 11:05:37;;;;;;;16.80;6.57;;;6.90;1.00;;;;;;5052645;28;20421;-73
2023/01/14 11:08:33;;;;;;;13.60;6.30;;;6.90;1.00;;;;;;5053522;28;20921;-73
2023/01/14 11:11:03;;;;;;;13.23;5.47;;;6.90;1.00;;;;;;5052058;28;20906;-73
2023/01/14 11:13:44;;;;;;;17.23;6.10;;;7.00;1.00;;;;;;5053444;28;20920;-73
2023/01/14 11:16:24;;;;;;;9.57;5.57;;;7.00;1.00;;;;;;5052746;28;20444;-72
2023/01/14 11:18:53;;;;;;;9.50;5.53;;;7.00;1.00;;;;;;5053213;28;20412;-71
2023/01/14 11:21:21;;;;;;;20.07;5.97;;;7.00;1.00;;;;;;5053273;28;20412;-73
2023/01/14 11:23:58;;;;;;;12.40;6.77;;;7.00;1.00;;;;;;5053193;28;20441;-73
2023/01/14 11:26:28;;;;;;;9.93;6.30;;;7.00;1.00;;;;;;5052460;28;20425;-73
2023/01/14 11:29:34;;;;;;;17.17;5.60;;;7.00;1.00;;;;;;5053133;28;20398;-73
2023/01/14 11:32:10;;;;;;;15.50;5.67;;;7.00;1.00;;;;;;5052042;28;20993;-73
2023/01/14 11:34:40;;;;;;;12.40;6.23;;;7.10;1.00;;;;;;5052367;28;20789;-73
2023/01/14 11:37:20;;;;;;;14.73;6.70;;;7.10;1.00;;;;;;5052623;28;20425;-73
2023/01/14 11:39:56;;;;;;;11.80;6.23;;;7.10;1.00;;;;;;5052914;28;20400;-74
2023/01/14 11:42:34;;;;;;;8.37;5.20;;;7.10;1.00;;;;;;5052919;28;20453;-73
2023/01/14 11:45:14;;;;;;;19.17;6.90;;;7.10;1.00;;;;;;5052722;28;20425;-73
2023/01/14 11:47:49;;;;;;;8.83;5.80;;;7.10;1.00;;;;;;5052828;28;20397;-73
2023/01/14 11:50:22;;;;;;;15.83;7.03;;;7.10;1.00;;;;;;5051630;28;20440;-73
2023/01/14 11:53:02;;;;;;;21.80;6.87;;;7.10;1.00;;;;;;5053025;28;20437;-73
2023/01/14 11:55:36;;;;;;;18.80;6.43;;;7.20;1.00;;;;;;5051942;28;20425;-73
2023/01/14 11:58:19;;;;;;;21.60;7.20;;;7.20;1.00;;;;;;5052704;28;20770;-73
2023/01/14 12:00:50;;;;;;;19.00;6.17;;;7.20;1.00;;;;;;5055174;28;20408;-73
2023/01/14 12:03:41;;;;;;;13.03;6.30;;;7.20;1.00;;;;;;5055710;28;20453;-73
2023/01/14 12:06:13;;;;;;;19.60;6.40;;;7.30;1.00;;;;;;5056121;28;20429;-73
2023/01/14 12:08:42;;;;;;;11.37;5.77;;;7.30;1.00;;;;;;5056883;28;20397;-73
2023/01/14 12:11:17;;;;;;;16.87;7.07;;;7.30;1.00;;;;;;5055472;28;20774;-73
2023/01/14 12:16:49;;;;;;;17.53;5.27;;;7.30;1.00;;;;;;5056220;28;20924;-74
2023/01/14 12:19:58;;;;;;;15.23;6.47;;;7.30;1.00;;;;;;5056640;28;20440;-73
2023/01/14 12:22:41;;;;;;;20.33;6.17;;;7.30;1.00;;;;;;5056370;28;20821;-73
2023/01/14 12:25:23;;;;;;;32.03;6.50;;;7.30;1.00;;;;;;5055892;28;20421;-73
2023/01/14 12:27:53;;;;;;;18.90;5.97;;;7.30;1.00;;;;;;5056432;28;20413;-73
2023/01/14 12:30:19;;;;;;;7.10;4.70;;;7.30;1.00;;;;;;5056326;28;20409;-73
2023/01/14 12:33:09;;;;;;;18.57;6.77;;;7.20;1.00;;;;;;5056137;28;20496;-73
2023/01/14 12:35:48;;;;;;;16.23;5.57;;;7.20;1.00;;;;;;5055544;28;20206;-73
2023/01/14 12:46:44;;;;;;;11.60;4.80;;;7.30;1.00;;;;;;5056180;28;20388;-73
2023/01/14 12:49:10;;;;;;;12.67;5.40;;;7.10;1.00;;;;;;5055831;28;20389;-73
2023/01/14 12:51:40;;;;;;;15.97;5.30;;;7.00;1.00;;;;;;5055946;28;20221;-73
2023/01/14 12:54:18;;;;;;;13.97;4.73;;;7.00;1.00;;;;;;5055780;28;20214;-73
2023/01/14 12:56:56;;;;;;;16.93;4.33;;;7.00;1.00;;;;;;5055963;28;20399;-74
2023/01/14 12:59:32;;;;;;;16.80;4.70;;;7.00;1.00;;;;;;5056145;28;20731;-74
2023/01/14 13:02:03;;;;;;;18.37;5.00;;;7.00;1.00;;;;;;5055792;28;20945;-74
2023/01/14 13:04:53;;;;;;;13.50;4.87;;;6.90;1.00;;;;;;5054944;28;20490;-74
2023/01/14 13:07:26;;;;;;;7.60;3.70;;;6.90;1.00;;;;;;5055458;28;20402;-74
2023/01/14 13:09:59;;;;;;;6.43;4.03;;;6.90;1.00;;;;;;5055618;28;20408;-74
2023/01/14 13:12:33;;;;;;;14.27;4.40;;;6.90;1.00;;;;;;5054458;28;20480;-73
2023/01/14 13:15:06;;;;;;;7.67;4.23;;;6.80;1.00;;;;;;5054898;28;20437;-73
2023/01/14 13:17:37;;;;;;;8.23;3.87;;;6.70;1.00;;;;;;5055591;28;20404;-73
2023/01/14 13:20:32;;;;;;;5.00;3.70;;;6.80;1.00;;;;;;5055524;28;20440;-74
2023/01/14 13:23:02;;;;;;;7.20;3.87;;;6.80;1.00;;;;;;5055129;28;20583;-74
2023/01/14 13:25:38;;;;;;;9.60;4.00;;;6.80;1.00;;;;;;5054417;28;20422;-74
2023/01/14 13:28:09;;;;;;;7.83;3.43;;;6.80;1.00;;;;;;5055257;28;20396;-74
2023/01/14 13:30:50;;;;;;;9.90;3.93;;;6.80;1.00;;;;;;5055262;28;20397;-74
2023/01/14 13:33:24;;;;;;;8.03;4.77;;;6.70;1.00;;;;;;5055309;28;20433;-73
2023/01/14 13:38:37;;;;;;;23.43;11.03;;;6.70;1.00;;;;;;5055258;28;20405;-73
2023/01/14 13:41:06;;;;;;;55.30;22.93;;;6.70;1.00;;;;;;5055098;28;20405;-73
2023/01/14 13:43:53;;;;;;;46.73;23.00;;;6.70;1.00;;;;;;5054795;28;20449;-74
2023/01/14 13:46:37;;;;;;;91.37;37.67;;;6.60;1.00;;;;;;5053155;28;20845;-75
2023/01/14 13:49:07;;;;;;;23.63;15.60;;;6.60;6.20;;;;;;5054893;28;20527;-76
2023/01/14 13:51:38;;;;;;;10.43;5.73;;;6.60;7.20;;;;;;5054959;28;20403;-73
2023/01/14 13:54:10;;;;;;;8.30;4.43;;;6.50;18.20;;;;;;5054732;28;20402;-75
2023/01/14 13:56:40;;;;;;;9.83;4.83;;;6.50;24.00;;;;;;5054344;28;20394;-73
2023/01/14 13:59:14;;;;;;;5.57;3.77;;;6.50;29.70;;;;;;5054499;28;20909;-75
2023/01/14 14:01:45;;;;;;;11.57;4.93;;;6.50;31.90;;;;;;5054643;28;20452;-76
2023/01/14 14:04:12;;;;;;;7.73;4.20;;;6.50;47.80;;;;;;5054535;28;20421;-77
2023/01/14 14:06:41;;;;;;;4.33;2.60;;;6.40;57.30;;;;;;5054103;28;20400;-78